Time;durP1;ratioP1;P1;durP2;ratioP2;P2;SDS_P1;SDS_P2;PMS_P1;PMS_P2;Temp;Humidity;BMP_temperature;BMP_pressure;BME280_temperature;BME280_humidity;BME280_pressure;Samples;Min_cycle;Max_cycle;Signal;HPM_P1;HPM_P2
2023/03/10 00:00:50;;;;;;;;;;;;;;;12.80;65.98;95047.66;5002565;28;19940;-79
2023/03/10 00:03:16;;;;;;;;;;;;;;;13.12;65.00;95048.97;5005525;28;20286;-78
2023/03/10 00:05:41;;;;;;;;;;;;;;;13.44;64.17;95046.88;4990708;28;19913;-78
2023/03/10 00:08:06;;;;;;;;;;;;;;;13.07;65.55;95046.53;5003402;28;19918;-79
2023/03/10 00:10:31;;;;;;;;;;;;;;;13.16;65.53;95033.44;4971720;28;19920;-78
2023/03/10 00:12:57;;;;;;;;;;;;;;;13.00;65.86;95033.19;5007017;28;19971;-78
2023/03/10 00:15:22;;;;;;;;;;;;;;;12.90;66.03;95034.28;5003381;28;19997;-78
2023/03/10 00:17:54;;;;;;;;;;;;;;;12.77;66.84;95025.56;4986184;28;20377;-78
2023/03/10 00:20:19;;;;;;;;;;;;;;;13.01;65.93;95021.66;5005168;28;20377;-78
2023/03/10 00:22:45;;;;;;;;;;;;;;;13.05;65.32;95006.88;5000637;28;19928;-77
2023/03/10 00:25:11;;;;;;;;;;;;;;;13.16;64.81;95012.53;4973503;28;19924;-78
2023/03/10 00:27:36;;;;;;;;;;;;;;;13.17;64.64;95014.81;5007577;28;19913;-78
2023/03/10 00:30:02;;;;;;;;;;;;;;;12.99;65.40;95015.97;4986306;28;19913;-78
2023/03/10 00:32:27;;;;;;;;;;;;;;;13.28;64.49;95012.63;4972206;28;19956;-79
2023/03/10 00:34:52;;;;;;;;;;;;;;;12.90;65.32;95008.94;4987147;28;19971;-77
2023/03/10 00:37:18;;;;;;;;;;;;;;;13.01;64.71;95000.75;5021820;28;19913;-78
2023/03/10 00:39:43;;;;;;;;;;;;;;;13.14;64.83;95001.63;4985970;28;20704;-77
2023/03/10 00:42:08;;;;;;;;;;;;;;;13.28;64.29;94999.56;4988234;28;20415;-78
2023/03/10 00:44:34;;;;;;;;;;;;;;;13.13;64.78;95002.72;4986851;28;19972;-78
2023/03/10 00:46:59;;;;;;;;;;;;;;;13.15;64.20;95001.31;5000056;28;20448;-77
2023/03/10 00:49:24;;;;;;;;;;;;;;;13.14;64.38;95004.25;4998983;28;19918;-78
2023/03/10 00:51:49;;;;;;;;;;;;;;;13.04;64.88;94992.28;4999252;28;20299;-77
2023/03/10 00:54:14;;;;;;;;;;;;;;;13.09;64.61;94992.91;5001505;28;19964;-79
2023/03/10 00:56:40;;;;;;;;;;;;;;;13.18;64.66;94985.00;4969944;28;20329;-78
2023/03/10 00:59:05;;;;;;;;;;;;;;;13.28;64.10;94984.66;5022792;28;19913;-78
2023/03/10 01:01:32;;;;;;;;;;;;;;;12.70;66.75;94986.88;4987913;28;19917;-78
2023/03/10 01:03:58;;;;;;;;;;;;;;;12.77;66.68;94985.63;5006828;28;19917;-78
2023/03/10 01:06:23;;;;;;;;;;;;;;;13.08;65.60;94972.31;5006661;28;20436;-79
2023/03/10 01:08:49;;;;;;;;;;;;;;;13.04;65.62;94974.78;4990920;28;19924;-78
2023/03/10 01:11:15;;;;;;;;;;;;;;;13.08;65.47;94980.13;5005011;28;19913;-77
2023/03/10 01:13:40;;;;;;;;;;;;;;;12.97;66.20;94971.09;4984459;28;19921;-78
2023/03/10 01:16:06;;;;;;;;;;;;;;;13.11;65.84;94969.06;4975032;28;19917;-78
2023/03/10 01:18:31;;;;;;;;;;;;;;;12.97;66.55;94960.66;5006307;28;19949;-79
2023/03/10 01:20:57;;;;;;;;;;;;;;;13.16;65.71;94961.06;5009929;28;20369;-77
2023/03/10 01:23:23;;;;;;;;;;;;;;;13.00;66.15;94967.88;5009006;28;19968;-78
2023/03/10 01:25:48;;;;;;;;;;;;;;;12.78;67.07;94956.56;4991600;28;19917;-79
2023/03/10 01:28:13;;;;;;;;;;;;;;;13.08;66.54;94954.00;4990096;28;19921;-79
2023/03/10 01:30:41;;;;;;;;;;;;;;;12.95;67.11;94940.06;5012774;28;19967;-78
2023/03/10 01:33:07;;;;;;;;;;;;;;;12.94;66.47;94935.94;4984053;28;19921;-81
2023/03/10 01:35:32;;;;;;;;;;;;;;;12.52;68.39;94941.75;4987231;28;20366;-78
2023/03/10 01:37:57;;;;;;;;;;;;;;;12.84;67.23;94934.44;4988756;28;20016;-78
2023/03/10 01:40:25;;;;;;;;;;;;;;;12.95;66.63;94926.25;4986405;28;19968;-79
2023/03/10 01:42:50;;;;;;;;;;;;;;;13.08;66.13;94917.44;5001131;28;19960;-79
2023/03/10 01:45:15;;;;;;;;;;;;;;;13.15;66.37;94922.94;5007393;28;20332;-78
2023/03/10 01:47:41;;;;;;;;;;;;;;;12.99;66.86;94919.31;5005935;28;20009;-78
2023/03/10 01:50:08;;;;;;;;;;;;;;;13.17;65.94;94926.00;4984258;28;19921;-79
2023/03/10 01:52:34;;;;;;;;;;;;;;;12.99;66.47;94914.88;5002884;28;19960;-79
2023/03/10 01:55:06;;;;;;;;;;;;;;;12.78;67.41;94906.19;5005376;28;19917;-79
2023/03/10 01:57:32;;;;;;;;;;;;;;;12.90;66.63;94912.31;5017822;28;19920;-78
2023/03/10 01:59:58;;;;;;;;;;;;;;;13.20;65.59;94909.69;5003484;28;20611;-78
2023/03/10 02:02:23;;;;;;;;;;;;;;;13.22;65.35;94906.75;4986588;28;20358;-77
2023/03/10 02:04:49;;;;;;;;;;;;;;;13.04;65.48;94911.28;5030964;22;19925;-75
2023/03/10 02:07:16;;;;;;;;;;;;;;;13.39;64.86;94913.75;5005196;28;19983;-76
2023/03/10 02:09:45;;;;;;;;;;;;;;;13.30;64.96;94911.94;5008045;28;20034;-77
2023/03/10 02:12:11;;;;;;;;;;;;;;;12.94;66.07;94886.31;5019841;28;19970;-75
2023/03/10 02:14:36;;;;;;;;;;;;;;;13.24;64.96;94899.34;5024832;28;20187;-75
2023/03/10 02:17:04;;;;;;;;;;;;;;;13.20;65.39;94901.84;5000208;28;19920;-77
2023/03/10 02:19:43;;;;;;;;;;;;;;;13.15;65.89;94906.50;5022723;28;20434;-75
2023/03/10 02:22:09;;;;;;;;;;;;;;;13.27;65.30;94894.25;5023966;28;19928;-75
2023/03/10 02:24:43;;;;;;;;;;;;;;;13.46;64.39;94893.84;5025201;28;19916;-76
2023/03/10 02:27:23;;;;;;;;;;;;;;;12.98;66.02;94883.84;5008606;28;19913;-75
2023/03/10 02:29:54;;;;;;;;;;;;;;;13.26;65.53;94887.53;5022267;28;20099;-76
2023/03/10 02:32:20;;;;;;;;;;;;;;;13.33;65.52;94886.25;5018051;28;19922;-75
2023/03/10 02:34:45;;;;;;;;;;;;;;;13.14;65.79;94873.59;5025052;28;19913;-75
2023/03/10 02:37:17;;;;;;;;;;;;;;;13.23;65.54;94876.91;5007900;28;19913;-76
2023/03/10 02:39:43;;;;;;;;;;;;;;;13.20;65.76;94875.72;5033314;28;19919;-74
2023/03/10 02:42:08;;;;;;;;;;;;;;;13.26;65.77;94865.84;5029093;28;19916;-75
2023/03/10 02:44:34;;;;;;;;;;;;;;;13.03;66.17;94878.44;5012635;28;19916;-77
2023/03/10 02:46:59;;;;;;;;;;;;;;;13.25;65.51;94877.38;5047167;28;19940;-75
2023/03/10 02:49:24;;;;;;;;;;;;;;;13.01;66.12;94870.91;5043185;28;19917;-76
2023/03/10 02:51:49;;;;;;;;;;;;;;;12.74;67.38;94864.28;5043456;28;19940;-75
2023/03/10 02:54:15;;;;;;;;;;;;;;;12.76;66.46;94872.56;5022468;28;20272;-76
2023/03/10 02:56:41;;;;;;;;;;;;;;;13.09;65.06;94866.69;5044553;28;19917;-77
2023/03/10 02:59:07;;;;;;;;;;;;;;;12.56;66.78;94861.00;5011856;28;20414;-76
2023/03/10 03:01:32;;;;;;;;;;;;;;;12.82;65.44;94850.44;5013925;28;19960;-75
2023/03/10 03:03:58;;;;;;;;;;;;;;;13.23;64.53;94854.19;5045222;28;19923;-76
2023/03/10 03:06:23;;;;;;;;;;;;;;;13.38;63.93;94845.00;5012843;28;19917;-76
2023/03/10 03:08:48;;;;;;;;;;;;;;;13.14;64.64;94845.63;5013049;28;20396;-77
2023/03/10 03:11:14;;;;;;;;;;;;;;;13.35;63.88;94843.06;5040619;28;19921;-75
2023/03/10 03:13:39;;;;;;;;;;;;;;;12.98;64.50;94836.81;5003264;28;19919;-76
2023/03/10 03:16:05;;;;;;;;;;;;;;;13.09;64.42;94824.91;5013969;28;19920;-77
2023/03/10 03:18:30;;;;;;;;;;;;;;;12.91;64.73;94811.97;5010463;28;19920;-76
2023/03/10 03:20:56;;;;;;;;;;;;;;;12.62;65.62;94817.22;4990597;28;19921;-76
2023/03/10 03:23:21;;;;;;;;;;;;;;;12.40;65.38;94828.66;5011166;28;19917;-76
2023/03/10 03:25:46;;;;;;;;;;;;;;;12.78;64.29;94820.78;5010129;28;19920;-76
2023/03/10 03:28:11;;;;;;;;;;;;;;;12.09;64.83;94816.63;5024237;28;19917;-77
2023/03/10 03:30:37;;;;;;;;;;;;;;;12.51;63.89;94820.16;4992678;28;20260;-78
2023/03/10 03:33:03;;;;;;;;;;;;;;;12.85;63.13;94804.63;5028203;28;20019;-75
2023/03/10 03:35:29;;;;;;;;;;;;;;;13.17;61.95;94812.88;5013210;28;19951;-75
2023/03/10 03:37:55;;;;;;;;;;;;;;;13.18;61.03;94811.78;4996645;28;19921;-76
2023/03/10 03:40:20;;;;;;;;;;;;;;;13.36;60.82;94828.13;5019310;28;20652;-76
2023/03/10 03:42:46;;;;;;;;;;;;;;;13.22;60.48;94825.75;5024479;28;19917;-77
2023/03/10 03:45:13;;;;;;;;;;;;;;;12.41;62.51;94827.59;5013937;28;19998;-76
2023/03/10 03:47:38;;;;;;;;;;;;;;;12.75;62.15;94839.72;5029144;28;20391;-77
2023/03/10 03:50:04;;;;;;;;;;;;;;;12.91;61.96;94839.94;5028244;28;19920;-75
2023/03/10 03:52:29;;;;;;;;;;;;;;;12.15;64.88;94838.88;5011482;28;20372;-76
2023/03/10 03:54:54;;;;;;;;;;;;;;;12.98;61.93;94836.81;5011625;28;19913;-76
2023/03/10 03:57:20;;;;;;;;;;;;;;;12.86;62.26;94835.66;5012855;28;19917;-77
2023/03/10 03:59:45;;;;;;;;;;;;;;;12.70;63.97;94832.06;5011987;28;19944;-77
2023/03/10 04:02:10;;;;;;;;;;;;;;;12.55;64.06;94821.06;5029438;28;19924;-76
2023/03/10 04:04:35;;;;;;;;;;;;;;;13.00;62.70;94818.97;5011900;28;19917;-77
2023/03/10 04:07:01;;;;;;;;;;;;;;;12.61;64.12;94815.66;5012762;28;19916;-78
2023/03/10 04:09:26;;;;;;;;;;;;;;;12.70;64.04;94817.16;5027404;28;19936;-78
2023/03/10 04:11:51;;;;;;;;;;;;;;;12.52;64.74;94816.47;5027107;28;19920;-76
2023/03/10 04:14:17;;;;;;;;;;;;;;;12.61;64.72;94818.28;5011900;28;20356;-77
2023/03/10 04:16:43;;;;;;;;;;;;;;;12.47;65.69;94811.41;5045063;28;20323;-76
2023/03/10 04:19:08;;;;;;;;;;;;;;;12.71;65.00;94815.31;5029350;28;20611;-75
2023/03/10 04:21:34;;;;;;;;;;;;;;;12.98;64.13;94808.09;5010662;28;19916;-78
2023/03/10 04:23:59;;;;;;;;;;;;;;;13.25;63.00;94802.34;4993506;28;19921;-75
2023/03/10 04:26:24;;;;;;;;;;;;;;;13.25;62.78;94799.75;5025023;28;19975;-76
2023/03/10 04:28:50;;;;;;;;;;;;;;;13.31;62.77;94800.31;5012312;28;19959;-75
2023/03/10 04:31:16;;;;;;;;;;;;;;;12.73;63.72;94792.25;5009666;28;20395;-75
2023/03/10 04:33:41;;;;;;;;;;;;;;;12.93;63.20;94790.75;5023846;28;20009;-76
2023/03/10 04:36:06;;;;;;;;;;;;;;;13.13;62.82;94784.00;4990906;28;20003;-76
2023/03/10 04:38:32;;;;;;;;;;;;;;;13.44;61.90;94780.25;5007208;28;20036;-75
2023/03/10 04:40:57;;;;;;;;;;;;;;;13.24;62.75;94773.94;5024452;28;19913;-76
2023/03/10 04:43:23;;;;;;;;;;;;;;;13.43;61.76;94766.41;5023891;28;20019;-76
2023/03/10 04:45:48;;;;;;;;;;;;;;;13.52;61.76;94760.34;5022964;28;20368;-76
2023/03/10 04:48:13;;;;;;;;;;;;;;;13.09;62.85;94757.75;5024418;28;19913;-75
2023/03/10 04:50:38;;;;;;;;;;;;;;;12.97;63.48;94749.88;5021851;28;20335;-75
2023/03/10 04:53:04;;;;;;;;;;;;;;;12.98;63.47;94740.94;5009383;28;19963;-77
2023/03/10 04:55:29;;;;;;;;;;;;;;;13.19;62.54;94727.84;5022459;28;19948;-76
2023/03/10 04:57:54;;;;;;;;;;;;;;;13.06;62.77;94727.06;5040764;28;19974;-78
2023/03/10 05:00:19;;;;;;;;;;;;;;;12.81;64.12;94726.16;5011123;28;20360;-76
2023/03/10 05:02:45;;;;;;;;;;;;;;;12.82;63.94;94714.63;5027650;28;19960;-77
2023/03/10 05:05:10;;;;;;;;;;;;;;;12.87;63.42;94714.44;5024963;28;20432;-74
2023/03/10 05:07:35;;;;;;;;;;;;;;;12.80;63.60;94716.03;5010006;28;19917;-75
2023/03/10 05:10:01;;;;;;;;;;;;;;;12.91;63.57;94723.16;4995263;28;19917;-76
2023/03/10 05:12:26;;;;;;;;;;;;;;;12.84;63.24;94712.47;5024509;28;19917;-76
2023/03/10 05:14:51;;;;;;;;;;;;;;;13.05;62.65;94703.84;5023146;28;19912;-74
2023/03/10 05:17:16;;;;;;;;;;;;;;;13.21;62.26;94706.63;5023945;28;20285;-75
2023/03/10 05:19:42;;;;;;;;;;;;;;;13.09;62.60;94709.94;5007980;28;19913;-75
2023/03/10 05:22:10;;;;;;;;;;;;;;;13.21;61.71;94701.41;5026783;28;19925;-75
2023/03/10 05:24:35;;;;;;;;;;;;;;;13.35;61.35;94711.59;5010744;28;19917;-75
2023/03/10 05:27:03;;;;;;;;;;;;;;;13.21;61.76;94710.03;5023095;28;19919;-75
2023/03/10 05:29:28;;;;;;;;;;;;;;;12.88;62.46;94713.34;4994337;28;20427;-75
2023/03/10 05:31:54;;;;;;;;;;;;;;;13.22;61.34;94713.41;5006105;28;19920;-76
2023/03/10 05:34:19;;;;;;;;;;;;;;;13.10;61.79;94712.25;5007259;28;19952;-77
2023/03/10 05:36:44;;;;;;;;;;;;;;;12.84;62.60;94712.47;5023770;28;19913;-77
2023/03/10 05:39:10;;;;;;;;;;;;;;;13.04;61.69;94712.75;5006035;28;19952;-77
2023/03/10 05:41:36;;;;;;;;;;;;;;;13.04;61.87;94710.16;5024968;28;19913;-76
2023/03/10 05:44:01;;;;;;;;;;;;;;;12.60;62.84;94715.72;5025022;28;19913;-76
2023/03/10 05:46:26;;;;;;;;;;;;;;;13.08;61.57;94711.06;5010012;28;20422;-74
2023/03/10 05:48:52;;;;;;;;;;;;;;;13.09;60.87;94705.50;5026933;28;19913;-76
2023/03/10 05:51:17;;;;;;;;;;;;;;;13.19;61.37;94699.09;5022359;28;19955;-76
2023/03/10 05:53:42;;;;;;;;;;;;;;;13.12;61.02;94704.09;5018768;28;20008;-76
2023/03/10 05:56:12;;;;;;;;;;;;;;;12.92;61.77;94698.59;5002097;28;19912;-77
2023/03/10 05:58:37;;;;;;;;;;;;;;;13.18;61.03;94699.44;5006693;28;19939;-75
2023/03/10 06:01:03;;;;;;;;;;;;;;;13.03;61.35;94688.50;5008331;28;19913;-75
2023/03/10 06:03:28;;;;;;;;;;;;;;;13.17;60.79;94690.84;5005762;28;20049;-75
2023/03/10 06:05:54;;;;;;;;;;;;;;;13.17;60.24;94690.06;5008870;28;20075;-76
2023/03/10 06:08:20;;;;;;;;;;;;;;;13.35;60.20;94690.69;4988073;28;20380;-76
2023/03/10 06:10:45;;;;;;;;;;;;;;;13.07;61.08;94696.47;5025152;28;19960;-75
2023/03/10 06:13:10;;;;;;;;;;;;;;;13.38;60.42;94690.81;5006699;28;20013;-75
2023/03/10 06:15:36;;;;;;;;;;;;;;;13.46;59.56;94678.75;4987931;28;20245;-75
2023/03/10 06:18:01;;;;;;;;;;;;;;;13.10;60.48;94677.53;5005049;28;20292;-76
2023/03/10 06:20:26;;;;;;;;;;;;;;;13.17;60.00;94687.47;4995505;28;19920;-76
2023/03/10 06:22:52;;;;;;;;;;;;;;;13.32;59.71;94686.13;5037315;28;19921;-74
2023/03/10 06:25:17;;;;;;;;;;;;;;;13.07;60.28;94692.00;5024121;28;19913;-75
2023/03/10 06:27:42;;;;;;;;;;;;;;;12.82;60.73;94682.53;4996290;28;20701;-78
2023/03/10 06:30:08;;;;;;;;;;;;;;;12.78;60.71;94681.63;4990309;28;20396;-76
2023/03/10 06:32:33;;;;;;;;;;;;;;;12.79;60.58;94678.72;4974778;28;19914;-77
2023/03/10 06:34:59;;;;;;;;;;;;;;;13.14;60.20;94681.03;5004331;28;20325;-75
2023/03/10 06:37:24;;;;;;;;;;;;;;;13.35;59.50;94682.84;5024988;28;20433;-75
2023/03/10 06:39:49;;;;;;;;;;;;;;;13.28;59.62;94689.34;5008806;28;19913;-76
2023/03/10 06:42:14;;;;;;;;;;;;;;;12.86;60.14;94681.56;4993549;28;19917;-75
2023/03/10 06:44:40;;;;;;;;;;;;;;;13.25;59.31;94703.06;4988075;28;19918;-75
2023/03/10 06:47:05;;;;;;;;;;;;;;;12.68;60.39;94701.06;5016691;28;20012;-78
2023/03/10 06:49:31;;;;;;;;;;;;;;;12.88;60.10;94705.50;4984384;28;19914;-75
2023/03/10 06:51:56;;;;;;;;;;;;;;;13.06;58.56;94694.94;5011131;28;19921;-74
2023/03/10 06:54:46;;;;;;;;;;;;;;;12.96;59.59;94716.22;5010632;28;19919;-75
2023/03/10 06:57:11;;;;;;;;;;;;;;;13.01;59.10;94710.81;5004716;28;19913;-76
2023/03/10 06:59:36;;;;;;;;;;;;;;;12.92;60.23;94716.88;5023855;28;19967;-76
2023/03/10 07:02:02;;;;;;;;;;;;;;;12.68;60.25;94722.72;5001372;28;20281;-76
2023/03/10 07:04:27;;;;;;;;;;;;;;;12.71;59.95;94721.31;5004697;28;19963;-75
2023/03/10 07:06:53;;;;;;;;;;;;;;;12.79;59.93;94733.53;5022115;28;20230;-76
2023/03/10 07:09:18;;;;;;;;;;;;;;;12.67;60.44;94726.41;4988247;28;20319;-75
2023/03/10 07:11:43;;;;;;;;;;;;;;;13.15;58.45;94734.81;5024786;28;19913;-74
2023/03/10 07:14:08;;;;;;;;;;;;;;;13.25;58.27;94742.25;5000749;28;19913;-74
2023/03/10 07:16:34;;;;;;;;;;;;;;;12.58;61.63;94741.38;5009424;28;19968;-75
2023/03/10 07:18:59;;;;;;;;;;;;;;;12.55;61.94;94750.59;5023629;28;19959;-76
2023/03/10 07:21:24;;;;;;;;;;;;;;;12.62;61.09;94752.69;5007679;28;19920;-75
2023/03/10 07:23:49;;;;;;;;;;;;;;;12.60;60.73;94747.03;5008202;28;19959;-75
2023/03/10 07:26:17;;;;;;;;;;;;;;;12.79;60.15;94741.38;5022472;28;20306;-75
2023/03/10 07:28:42;;;;;;;;;;;;;;;12.66;60.39;94739.78;5020671;28;20007;-75
2023/03/10 07:31:10;;;;;;;;;;;;;;;12.82;60.34;94740.00;5026116;28;20020;-75
2023/03/10 07:33:35;;;;;;;;;;;;;;;12.65;60.87;94738.25;5020621;28;20373;-75
2023/03/10 07:36:08;;;;;;;;;;;;;;;12.82;60.95;94751.19;5002326;28;19917;-76
2023/03/10 07:38:33;;;;;;;;;;;;;;;12.85;61.03;94747.16;5008203;28;19959;-76
2023/03/10 07:40:58;;;;;;;;;;;;;;;12.92;61.63;94763.13;5027231;28;20307;-75
2023/03/10 07:43:24;;;;;;;;;;;;;;;12.81;61.55;94749.66;5007194;28;20434;-74
2023/03/10 07:45:49;;;;;;;;;;;;;;;12.46;62.08;94755.09;5007775;28;20267;-74
2023/03/10 07:48:14;;;;;;;;;;;;;;;12.65;60.71;94748.69;5024067;28;19967;-79
2023/03/10 07:50:39;;;;;;;;;;;;;;;12.76;60.76;94765.50;5009058;28;20374;-80
2023/03/10 07:53:05;;;;;;;;;;;;;;;12.79;60.74;94753.69;5019937;28;20346;-79
2023/03/10 07:55:30;;;;;;;;;;;;;;;12.83;60.28;94770.22;4992137;28;19914;-80
2023/03/10 07:57:56;;;;;;;;;;;;;;;12.85;60.06;94762.84;5010544;28;19913;-81
2023/03/10 08:00:22;;;;;;;;;;;;;;;12.47;61.06;94764.44;5012471;28;20372;-80
2023/03/10 08:02:47;;;;;;;;;;;;;;;12.16;62.01;94767.34;4997778;28;19971;-79
2023/03/10 08:05:13;;;;;;;;;;;;;;;12.40;61.12;94769.41;5026349;28;19966;-79
2023/03/10 08:07:39;;;;;;;;;;;;;;;12.42;61.84;94766.47;4994094;28;19920;-80
2023/03/10 08:10:04;;;;;;;;;;;;;;;12.44;61.29;94764.31;5011673;28;20000;-79
2023/03/10 08:12:30;;;;;;;;;;;;;;;12.63;61.23;94769.13;5014171;28;19920;-81
2023/03/10 08:14:55;;;;;;;;;;;;;;;12.55;61.24;94763.63;5025089;28;19920;-80
2023/03/10 08:17:20;;;;;;;;;;;;;;;12.45;61.82;94763.25;5025536;28;20344;-79
2023/03/10 08:19:46;;;;;;;;;;;;;;;12.22;62.66;94757.50;5004248;28;19919;-79
2023/03/10 08:22:11;;;;;;;;;;;;;;;12.16;63.98;94756.94;5010414;28;20292;-80
2023/03/10 08:24:36;;;;;;;;;;;;;;;12.26;63.11;94764.41;5016903;28;20391;-80
2023/03/10 08:27:02;;;;;;;;;;;;;;;12.65;61.79;94774.81;5011630;28;20024;-79
2023/03/10 08:29:27;;;;;;;;;;;;;;;12.34;62.55;94768.06;4984919;28;19921;-80
2023/03/10 08:31:52;;;;;;;;;;;;;;;12.78;61.17;94768.56;5001634;28;19920;-79
2023/03/10 08:34:17;;;;;;;;;;;;;;;12.89;61.10;94769.72;4994451;28;19919;-79
2023/03/10 08:36:43;;;;;;;;;;;;;;;12.82;60.82;94772.09;4995199;28;19913;-80
2023/03/10 08:39:09;;;;;;;;;;;;;;;12.92;60.88;94778.78;4985948;28;19917;-80
2023/03/10 08:41:36;;;;;;;;;;;;;;;12.75;61.30;94777.06;4993281;28;19924;-80
2023/03/10 08:44:01;;;;;;;;;;;;;;;12.66;63.43;94781.53;5001295;28;19938;-80
2023/03/10 08:46:27;;;;;;;;;;;;;;;12.79;62.20;94779.78;5039864;28;19913;-80
2023/03/10 08:48:52;;;;;;;;;;;;;;;12.54;63.37;94780.41;4995477;28;19952;-80
2023/03/10 08:51:18;;;;;;;;;;;;;;;12.23;64.22;94779.91;4985558;28;20012;-80
2023/03/10 08:53:45;;;;;;;;;;;;;;;12.43;63.90;94784.44;4994227;28;19913;-80
2023/03/10 08:56:10;;;;;;;;;;;;;;;12.77;63.30;94782.72;4997396;28;20301;-80
2023/03/10 08:58:36;;;;;;;;;;;;;;;12.71;62.97;94783.97;4992575;28;19920;-83
2023/03/10 09:01:01;;;;;;;;;;;;;;;11.98;65.52;94777.09;5025082;28;19921;-81
2023/03/10 09:03:26;;;;;;;;;;;;;;;12.18;65.01;94781.63;5011674;28;19960;-80
2023/03/10 09:05:52;;;;;;;;;;;;;;;12.22;65.75;94773.16;5012776;28;20236;-82
2023/03/10 09:08:17;;;;;;;;;;;;;;;11.98;66.23;94772.66;5000668;28;19913;-81
2023/03/10 09:10:43;;;;;;;;;;;;;;;12.36;65.83;94777.09;4998906;28;19920;-81
2023/03/10 09:13:08;;;;;;;;;;;;;;;12.37;65.37;94788.28;5017484;28;19920;-81
2023/03/10 09:15:34;;;;;;;;;;;;;;;12.63;64.50;94785.56;5000230;28;19917;-82
2023/03/10 09:18:02;;;;;;;;;;;;;;;12.59;64.48;94786.50;5017173;28;20319;-82
2023/03/10 09:20:28;;;;;;;;;;;;;;;11.88;67.75;94780.78;4994969;28;20043;-82
2023/03/10 09:22:53;;;;;;;;;;;;;;;12.40;65.26;94795.50;5007702;28;20345;-84
2023/03/10 09:25:19;;;;;;;;;;;;;;;12.46;65.09;94788.28;5009460;28;19928;-82
2023/03/10 09:27:44;;;;;;;;;;;;;;;12.47;65.37;94795.75;4992472;28;20035;-80
2023/03/10 09:30:10;;;;;;;;;;;;;;;12.39;65.94;94793.19;5001040;28;20384;-80
2023/03/10 09:32:35;;;;;;;;;;;;;;;12.61;65.03;94786.94;5003281;28;19917;-80
2023/03/10 09:35:00;;;;;;;;;;;;;;;12.72;65.38;94790.72;4987834;28;20040;-81
2023/03/10 09:37:26;;;;;;;;;;;;;;;12.71;65.41;94787.38;5024813;28;19971;-81
2023/03/10 09:39:52;;;;;;;;;;;;;;;12.37;66.26;94785.69;4992854;28;19920;-81
2023/03/10 09:42:26;;;;;;;;;;;;;;;12.52;66.47;94787.75;5006870;28;19921;-81
2023/03/10 09:44:57;;;;;;;;;;;;;;;12.57;66.40;94791.28;5007025;28;19916;-81
2023/03/10 09:47:41;;;;;;;;;;;;;;;12.54;65.95;94806.50;5027884;28;19913;-81
2023/03/10 09:50:19;;;;;;;;;;;;;;;12.64;65.27;94810.56;5003524;28;19924;-81
2023/03/10 09:52:45;;;;;;;;;;;;;;;12.69;65.91;94807.03;5004705;28;19913;-81
2023/03/10 09:55:17;;;;;;;;;;;;;;;12.82;64.95;94815.72;5008390;28;20007;-79
2023/03/10 09:57:42;;;;;;;;;;;;;;;12.86;65.13;94806.16;4998191;28;19913;-80
2023/03/10 10:00:10;;;;;;;;;;;;;;;12.81;65.25;94807.09;5027606;28;19913;-81
2023/03/10 10:02:36;;;;;;;;;;;;;;;12.94;65.13;94815.81;4981153;28;20019;-81
2023/03/10 10:05:02;;;;;;;;;;;;;;;12.83;65.95;94812.78;4995173;28;19924;-81
2023/03/10 10:07:31;;;;;;;;;;;;;;;12.57;66.63;94799.88;5007476;28;19924;-84
2023/03/10 10:10:04;;;;;;;;;;;;;;;12.43;67.44;94805.31;4991041;28;19914;-82
2023/03/10 10:12:30;;;;;;;;;;;;;;;12.91;65.55;94808.59;4985259;28;19920;-85
2023/03/10 10:14:57;;;;;;;;;;;;;;;12.96;65.14;94812.88;5001512;28;19913;-82
2023/03/10 10:17:31;;;;;;;;;;;;;;;13.07;65.23;94814.00;5014932;28;20000;-82
2023/03/10 10:19:58;;;;;;;;;;;;;;;13.08;64.36;94808.47;5009816;28;20347;-81
2023/03/10 10:22:23;;;;;;;;;;;;;;;12.99;65.31;94809.59;4991666;28;20012;-82
2023/03/10 10:24:58;;;;;;;;;;;;;;;12.93;65.72;94815.00;5008354;28;20024;-81
2023/03/10 10:27:24;;;;;;;;;;;;;;;12.84;66.31;94811.69;5002998;28;19917;-81
2023/03/10 10:29:49;;;;;;;;;;;;;;;12.86;66.21;94822.59;5019577;28;20499;-82
2023/03/10 10:32:15;;;;;;;;;;;;;;;12.79;66.44;94814.50;5007981;28;20004;-81
2023/03/10 10:34:41;;;;;;;;;;;;;;;12.94;65.70;94821.03;5004790;28;19917;-82
2023/03/10 10:37:25;;;;;;;;;;;;;;;12.83;65.98;94822.47;4978971;28;19919;-82
2023/03/10 10:39:50;;;;;;;;;;;;;;;13.13;65.90;94833.66;5022774;28;20431;-81
2023/03/10 10:42:23;;;;;;;;;;;;;;;12.79;66.73;94837.25;5010799;28;19917;-81
2023/03/10 10:44:49;;;;;;;;;;;;;;;12.78;66.61;94840.91;5015766;28;20016;-82
2023/03/10 10:47:28;;;;;;;;;;;;;;;12.56;66.59;94834.91;5010857;28;19920;-82
2023/03/10 10:49:54;;;;;;;;;;;;;;;12.57;67.19;94844.25;4982861;28;20447;-83
2023/03/10 10:52:21;;;;;;;;;;;;;;;12.82;65.68;94837.38;5027189;28;19960;-82
2023/03/10 10:54:56;;;;;;;;;;;;;;;12.60;67.10;94835.03;5026632;28;19913;-81
2023/03/10 10:57:26;;;;;;;;;;;;;;;12.63;66.71;94839.59;5006768;28;20431;-82
2023/03/10 10:59:51;;;;;;;;;;;;;;;12.39;67.34;94835.72;5023149;28;19935;-82
2023/03/10 11:02:23;;;;;;;;;;;;;;;12.87;66.33;94850.25;5009887;28;19916;-81
2023/03/10 11:04:48;;;;;;;;;;;;;;;12.51;66.88;94835.84;5030983;28;19956;-82
2023/03/10 11:07:18;;;;;;;;;;;;;;;12.71;66.20;94841.41;5011171;28;19970;-82
2023/03/10 11:09:43;;;;;;;;;;;;;;;12.70;66.09;94839.91;5008385;28;20424;-81
2023/03/10 11:12:27;;;;;;;;;;;;;;;12.42;66.84;94836.94;5019055;28;19952;-82
2023/03/10 11:14:53;;;;;;;;;;;;;;;12.45;67.58;94841.53;5010088;28;19955;-82
2023/03/10 11:17:24;;;;;;;;;;;;;;;12.90;66.44;94835.78;5004041;28;21375;-81
2023/03/10 11:19:58;;;;;;;;;;;;;;;12.50;67.71;94825.69;4995122;28;20379;-81
2023/03/10 11:22:36;;;;;;;;;;;;;;;12.83;66.92;94832.91;5027254;28;20039;-82
2023/03/10 11:25:04;;;;;;;;;;;;;;;12.69;67.19;94830.53;5017921;28;20273;-80
2023/03/10 11:27:38;;;;;;;;;;;;;;;12.69;67.29;94833.13;5031349;28;19916;-81
2023/03/10 11:30:16;;;;;;;;;;;;;;;12.80;66.04;94831.69;5013528;28;20003;-80
2023/03/10 11:32:53;;;;;;;;;;;;;;;12.37;68.25;94827.44;5007565;28;20276;-82
2023/03/10 11:35:30;;;;;;;;;;;;;;;12.22;68.50;94822.72;5011068;28;19913;-82
2023/03/10 11:38:02;;;;;;;;;;;;;;;12.23;68.71;94822.41;4994725;28;19924;-80
2023/03/10 11:40:55;;;;;;;;;;;;;;;12.63;67.77;94823.94;4990877;28;19913;-83
2023/03/10 11:43:29;;;;;;;;;;;;;;;12.31;68.75;94823.47;5007560;28;19925;-82
2023/03/10 11:45:55;;;;;;;;;;;;;;;12.68;67.29;94815.94;5027881;28;20121;-83
2023/03/10 11:48:40;;;;;;;;;;;;;;;12.48;67.71;94810.34;4994688;28;20392;-82
2023/03/10 11:51:06;;;;;;;;;;;;;;;12.50;67.46;94815.25;4996176;28;20288;-83
2023/03/10 11:53:42;;;;;;;;;;;;;;;12.62;66.73;94817.97;4977386;28;19922;-82
2023/03/10 11:56:08;;;;;;;;;;;;;;;12.37;67.23;94822.22;4994358;28;20380;-80
2023/03/10 11:58:54;;;;;;;;;;;;;;;12.10;67.93;94808.50;5015275;28;19959;-80
2023/03/10 12:01:39;;;;;;;;;;;;;;;12.32;67.37;94819.78;5001228;28;19968;-81
2023/03/10 12:04:10;;;;;;;;;;;;;;;12.08;68.16;94809.88;4992551;28;19924;-82
2023/03/10 12:06:38;;;;;;;;;;;;;;;11.97;68.28;94819.88;5029210;28;20406;-81
2023/03/10 12:09:05;;;;;;;;;;;;;;;12.05;67.85;94810.53;5004540;28;20357;-82
2023/03/10 12:11:31;;;;;;;;;;;;;;;12.06;68.12;94815.41;4996453;28;19927;-84
2023/03/10 12:14:00;;;;;;;;;;;;;;;12.39;68.53;94824.50;5026282;28;20308;-83
2023/03/10 12:16:26;;;;;;;;;;;;;;;12.45;68.08;94825.88;5013942;28;20020;-83
2023/03/10 12:18:52;;;;;;;;;;;;;;;12.40;68.06;94823.44;4998633;28;20357;-80
2023/03/10 12:21:27;;;;;;;;;;;;;;;12.24;68.22;94818.75;5029172;28;19967;-81
2023/03/10 12:23:54;;;;;;;;;;;;;;;12.10;68.50;94811.13;4997572;28;19914;-83
2023/03/10 12:26:37;;;;;;;;;;;;;;;12.45;67.56;94818.06;5044647;28;19927;-83
2023/03/10 12:29:15;;;;;;;;;;;;;;;12.34;68.50;94818.41;5022921;28;19909;-83
2023/03/10 12:31:40;;;;;;;;;;;;;;;12.64;67.55;94807.22;5028578;28;20369;-86
2023/03/10 12:34:12;;;;;;;;;;;;;;;12.53;67.60;94804.19;5022288;28;19909;-82
2023/03/10 12:36:38;;;;;;;;;;;;;;;12.41;67.75;94807.47;5010715;28;19937;-83
2023/03/10 12:39:22;;;;;;;;;;;;;;;12.39;68.11;94814.84;5002638;28;20032;-80
2023/03/10 12:41:48;;;;;;;;;;;;;;;12.59;66.89;94808.16;5030638;28;19912;-81
2023/03/10 12:44:28;;;;;;;;;;;;;;;12.31;67.39;94800.00;5013311;28;20451;-82
2023/03/10 12:47:06;;;;;;;;;;;;;;;11.96;68.92;94803.50;5029213;28;19984;-82